KAEG

Double Eagle II Airport

Albuquerque, New Mexico, USA
METAR KAEG 220350Z 30012G17KT 10SM SCT036 BKN060 03/M03 A2976
Observed Flight Rules
Jan-22 @ 03:50 UTC (40 minutes ago) Visual Flight Rules
Wind Visibility Clouds
300° at 12 knots
 Gusting to 17 knots
10 miles
  • Scattered at 3,600' AGL
  • Broken at 6,000' AGL
Temperatures Readings
Current 3°C / 37°F
Dewpoint -3°C / 27°F
Humidity 65%
Altimeter 29.76" Hg
Pressure 1007.82 hPa
Elevation 1779
METAR KAEG 220350Z 30012G17KT 10SM SCT036 BKN060 03/M03 A2976
Observed Flight Rules
Jan-22 @ 03:50 UTC
(40 minutes ago)
VFR
Wind Visibility
300° at 12 knots
 Gusting to 17 knots
10 miles
Clouds
  • Scattered at 3,600' AGL
  • Broken at 6,000' AGL
Temperature Dewpoint
3°C / 37°F -3°C / 27°F
Humidity Altimeter Pressure
65% 29.76" Hg 1007.82 hPa